createdAt,value
2018-10-03T00:00:39.231Z,11.68
2018-10-03T00:03:06.647Z,11.79
2018-10-03T00:05:34.063Z,11.75
2018-10-03T00:08:01.471Z,11.66
2018-10-03T00:10:28.874Z,11.66
2018-10-03T00:12:56.355Z,11.54
2018-10-03T00:15:23.791Z,11.52
2018-10-03T00:17:51.208Z,11.54
2018-10-03T00:20:18.622Z,11.57
2018-10-03T00:22:46.076Z,11.55
2018-10-03T00:25:13.488Z,11.58
2018-10-03T00:27:40.907Z,11.55
2018-10-03T00:30:08.345Z,11.48
2018-10-03T00:32:35.814Z,11.51
2018-10-03T00:35:03.267Z,11.45
2018-10-03T00:37:30.719Z,11.40
2018-10-03T00:39:58.132Z,11.32
2018-10-03T00:42:25.634Z,11.33
2018-10-03T00:44:53.057Z,11.36
2018-10-03T00:47:20.499Z,11.33
2018-10-03T00:49:47.923Z,11.36
2018-10-03T00:52:15.334Z,11.31
2018-10-03T00:54:42.826Z,11.25
2018-10-03T00:57:10.251Z,11.34
2018-10-03T00:59:37.916Z,11.26
2018-10-03T01:02:05.393Z,11.28
2018-10-03T01:04:33.028Z,11.27
2018-10-03T01:07:00.448Z,11.29
2018-10-03T01:09:27.879Z,11.28
2018-10-03T01:11:55.303Z,11.29
2018-10-03T01:14:22.710Z,11.29
2018-10-03T01:16:50.150Z,11.28
2018-10-03T01:19:17.601Z,11.35
2018-10-03T01:21:45.055Z,11.38
2018-10-03T01:24:12.478Z,11.46
2018-10-03T01:26:39.891Z,11.55
2018-10-03T01:29:07.327Z,11.57
2018-10-03T01:31:34.755Z,11.58
2018-10-03T01:34:02.208Z,11.60
2018-10-03T01:36:29.623Z,11.58
2018-10-03T01:38:57.040Z,11.55
2018-10-03T01:41:24.516Z,11.46
2018-10-03T01:43:51.939Z,11.48
2018-10-03T01:46:19.429Z,11.45
2018-10-03T01:48:46.854Z,11.37
2018-10-03T01:51:14.348Z,11.34
2018-10-03T01:53:41.776Z,11.28
2018-10-03T01:56:09.328Z,11.27
2018-10-03T01:58:36.747Z,11.21
2018-10-03T02:01:04.163Z,11.13
2018-10-03T02:03:31.564Z,11.14
2018-10-03T02:05:58.978Z,11.15
2018-10-03T02:08:26.410Z,11.33
2018-10-03T02:10:53.897Z,11.26
2018-10-03T02:13:21.318Z,11.31
2018-10-03T02:15:48.738Z,11.36
2018-10-03T02:18:16.237Z,11.33
2018-10-03T02:20:43.676Z,11.38
2018-10-03T02:23:11.090Z,11.40
2018-10-03T02:25:38.559Z,11.41
2018-10-03T02:28:05.967Z,11.28
2018-10-03T02:30:33.388Z,11.38
2018-10-03T02:33:00.815Z,11.32
2018-10-03T02:35:28.267Z,11.41
2018-10-03T02:37:55.685Z,11.41
2018-10-03T02:40:23.191Z,11.43
2018-10-03T02:42:50.743Z,11.36
2018-10-03T02:45:20.639Z,11.31
2018-10-03T02:47:48.044Z,11.26
2018-10-03T02:50:15.454Z,11.34
2018-10-03T02:52:42.870Z,11.33
2018-10-03T02:55:10.289Z,11.32
2018-10-03T02:57:37.699Z,11.32
2018-10-03T03:00:05.151Z,11.30
2018-10-03T03:02:32.571Z,11.26
2018-10-03T03:04:59.996Z,11.09
2018-10-03T03:07:27.495Z,11.10
2018-10-03T03:09:54.911Z,11.09
2018-10-03T03:12:22.329Z,11.08
2018-10-03T03:14:49.750Z,10.88
2018-10-03T03:17:17.170Z,10.82
2018-10-03T03:19:44.587Z,10.79
2018-10-03T03:22:12.005Z,10.76
2018-10-03T03:24:39.424Z,10.78
2018-10-03T03:27:06.853Z,10.77
2018-10-03T03:29:34.291Z,10.74
2018-10-03T03:32:01.841Z,10.62
2018-10-03T03:34:29.286Z,10.59
2018-10-03T03:36:56.678Z,10.55
2018-10-03T03:39:24.103Z,10.61
2018-10-03T03:41:51.520Z,10.63
2018-10-03T03:44:18.935Z,10.60
2018-10-03T03:46:46.346Z,10.57
2018-10-03T03:49:13.779Z,10.59
2018-10-03T03:51:41.195Z,10.53
2018-10-03T03:54:08.618Z,10.58
2018-10-03T03:56:36.040Z,10.55
2018-10-03T03:59:03.467Z,10.53
2018-10-03T04:01:30.879Z,10.59
2018-10-03T04:03:58.307Z,10.47
2018-10-03T04:06:25.719Z,10.45
2018-10-03T04:08:53.139Z,10.40
2018-10-03T04:11:20.660Z,10.45
2018-10-03T04:13:48.119Z,10.43
2018-10-03T04:16:15.559Z,10.29
2018-10-03T04:18:42.970Z,10.31
2018-10-03T04:21:10.405Z,10.27
2018-10-03T04:23:37.816Z,10.30
2018-10-03T04:26:05.244Z,10.33
2018-10-03T04:28:32.664Z,10.43
2018-10-03T04:31:00.116Z,10.61
2018-10-03T04:33:27.563Z,10.71
2018-10-03T04:35:55.000Z,10.76
2018-10-03T04:38:22.418Z,10.86
2018-10-03T04:40:49.836Z,10.88
2018-10-03T04:43:17.246Z,10.93
2018-10-03T04:45:44.723Z,10.93
2018-10-03T04:48:12.232Z,10.92
2018-10-03T04:50:39.659Z,10.98
2018-10-03T04:53:07.079Z,10.96
2018-10-03T04:55:34.650Z,10.98
2018-10-03T04:58:02.067Z,11.05
2018-10-03T05:00:29.487Z,11.03
2018-10-03T05:02:56.904Z,11.08
2018-10-03T05:05:24.335Z,11.11
2018-10-03T05:07:51.755Z,11.09
2018-10-03T05:10:19.182Z,11.10
2018-10-03T05:12:46.598Z,11.11
2018-10-03T05:15:14.027Z,11.16
2018-10-03T05:17:41.437Z,11.24
2018-10-03T05:20:08.866Z,11.21
2018-10-03T05:22:36.275Z,11.19
2018-10-03T05:25:03.699Z,11.26
2018-10-03T05:27:31.107Z,11.34
2018-10-03T05:29:58.579Z,11.32
2018-10-03T05:32:26.000Z,11.33
2018-10-03T05:34:53.423Z,11.36
2018-10-03T05:37:20.855Z,11.43
2018-10-03T05:39:48.343Z,11.46
2018-10-03T05:42:15.730Z,11.45
2018-10-03T05:44:43.236Z,11.49
2018-10-03T05:47:10.663Z,11.51
2018-10-03T05:49:38.089Z,11.54
2018-10-03T05:52:05.565Z,11.54
2018-10-03T05:54:32.992Z,11.54
2018-10-03T05:57:00.409Z,11.55
2018-10-03T05:59:27.815Z,11.61
2018-10-03T06:01:55.282Z,11.64
2018-10-03T06:04:22.695Z,11.70
2018-10-03T06:06:56.638Z,11.68
2018-10-03T06:09:24.051Z,11.71
2018-10-03T06:11:51.478Z,11.76
2018-10-03T06:16:52.551Z,11.77
2018-10-03T06:19:19.982Z,11.78
2018-10-03T06:21:47.391Z,11.82
2018-10-03T06:24:14.803Z,11.85
2018-10-03T06:26:42.218Z,11.83
2018-10-03T06:29:09.635Z,11.80
2018-10-03T06:31:37.114Z,11.79
2018-10-03T06:34:04.529Z,11.84
2018-10-03T06:36:31.972Z,11.81
2018-10-03T06:38:59.388Z,11.83
2018-10-03T06:41:26.825Z,11.90
2018-10-03T06:43:54.315Z,11.87
2018-10-03T06:46:21.730Z,11.86
2018-10-03T06:48:49.372Z,11.94
2018-10-03T06:51:16.791Z,11.96
2018-10-03T06:53:44.216Z,12.04
2018-10-03T06:56:11.634Z,12.02
2018-10-03T06:58:39.055Z,12.02
2018-10-03T07:01:06.468Z,11.98
2018-10-03T07:03:33.900Z,11.96
2018-10-03T07:06:01.317Z,12.01
2018-10-03T07:08:28.771Z,11.98
2018-10-03T07:10:56.191Z,11.96
2018-10-03T07:13:23.618Z,11.48
2018-10-03T07:15:51.177Z,11.27
2018-10-03T07:18:18.601Z,11.08
2018-10-03T07:20:46.015Z,11.06
2018-10-03T07:23:13.511Z,11.25
2018-10-03T07:25:40.935Z,11.28
2018-10-03T07:28:08.432Z,11.11
2018-10-03T07:30:35.850Z,10.94
2018-10-03T07:33:03.273Z,11.08
2018-10-03T07:35:30.795Z,11.11
2018-10-03T07:37:58.273Z,11.11
2018-10-03T07:40:25.695Z,11.21
2018-10-03T07:42:53.124Z,11.51
2018-10-03T07:45:20.544Z,11.42
2018-10-03T07:47:47.957Z,11.64
2018-10-03T07:50:15.438Z,11.69
2018-10-03T07:52:42.948Z,11.74
2018-10-03T07:55:10.360Z,11.80
2018-10-03T07:57:37.841Z,11.93
2018-10-03T08:00:05.211Z,12.16
2018-10-03T08:02:32.631Z,12.07
2018-10-03T08:05:00.047Z,12.20
2018-10-03T08:07:27.464Z,12.28
2018-10-03T08:09:54.924Z,12.32
2018-10-03T08:12:22.303Z,12.36
2018-10-03T08:14:49.724Z,12.32
2018-10-03T08:17:17.184Z,12.63
2018-10-03T08:19:44.570Z,13.24
2018-10-03T08:22:12.095Z,13.01
2018-10-03T08:24:39.621Z,12.95
2018-10-03T08:27:06.993Z,12.89
2018-10-03T08:29:34.423Z,12.80
2018-10-03T08:32:01.868Z,12.95
2018-10-03T08:34:29.305Z,12.94
2018-10-03T08:36:56.728Z,12.91
2018-10-03T08:39:24.227Z,12.79
2018-10-03T08:41:51.747Z,12.92
2018-10-03T08:44:19.160Z,13.07
2018-10-03T08:46:46.583Z,13.41
2018-10-03T08:49:13.999Z,13.23
2018-10-03T08:51:41.440Z,13.22
2018-10-03T08:54:08.863Z,13.20
2018-10-03T08:56:36.275Z,13.54
2018-10-03T08:59:03.700Z,13.93
2018-10-03T09:01:31.139Z,14.20
2018-10-03T09:03:58.660Z,14.04
2018-10-03T09:06:26.099Z,13.90
2018-10-03T09:08:53.643Z,13.67
2018-10-03T09:11:21.198Z,13.85
2018-10-03T09:13:48.691Z,13.94
2018-10-03T09:16:16.126Z,14.07
2018-10-03T09:18:43.678Z,14.75
2018-10-03T09:21:11.089Z,15.27
2018-10-03T09:23:38.503Z,14.84
2018-10-03T09:26:05.930Z,15.00
2018-10-03T09:28:33.328Z,14.72
2018-10-03T09:31:00.764Z,14.62
2018-10-03T09:33:28.170Z,14.20
2018-10-03T09:35:55.595Z,14.43
2018-10-03T09:38:23.011Z,15.05
2018-10-03T09:40:50.434Z,14.86
2018-10-03T09:43:17.859Z,14.82
2018-10-03T09:45:45.291Z,14.48
2018-10-03T09:48:12.695Z,14.38
2018-10-03T09:50:40.159Z,14.51
2018-10-03T09:53:07.577Z,14.49
2018-10-03T09:55:34.983Z,14.45
2018-10-03T09:58:02.406Z,14.45
2018-10-03T10:00:35.219Z,14.15
2018-10-03T10:03:02.727Z,14.07
2018-10-03T10:05:30.147Z,13.98
2018-10-03T10:07:57.571Z,13.87
2018-10-03T10:10:25.048Z,13.77
2018-10-03T10:12:52.444Z,14.04
2018-10-03T10:15:19.920Z,14.16
2018-10-03T10:17:47.660Z,14.10
2018-10-03T10:20:15.335Z,14.30
2018-10-03T10:22:42.779Z,14.96
2018-10-03T10:25:10.292Z,14.88
2018-10-03T10:27:37.723Z,14.78
2018-10-03T10:30:05.159Z,14.65
2018-10-03T10:32:32.618Z,14.60
2018-10-03T10:35:00.291Z,14.77
2018-10-03T10:37:27.783Z,14.52
2018-10-03T10:39:55.204Z,14.24
2018-10-03T10:42:22.624Z,14.10
2018-10-03T10:44:50.036Z,14.23
2018-10-03T10:47:17.457Z,14.42
2018-10-03T10:49:44.967Z,13.74
2018-10-03T10:52:12.425Z,13.62
2018-10-03T10:54:39.849Z,13.60
2018-10-03T10:57:07.285Z,13.28
2018-10-03T10:59:34.728Z,13.28
2018-10-03T11:02:02.155Z,13.38
2018-10-03T11:04:29.570Z,13.52
2018-10-03T11:06:57.064Z,13.57
2018-10-03T11:09:24.475Z,13.92
2018-10-03T11:11:51.889Z,14.20
2018-10-03T11:14:19.315Z,14.06
2018-10-03T11:16:46.789Z,14.26
2018-10-03T11:19:14.151Z,14.14
2018-10-03T11:21:41.708Z,14.04
2018-10-03T11:24:09.205Z,13.89
2018-10-03T11:26:36.562Z,13.68
2018-10-03T11:29:03.976Z,13.38
2018-10-03T11:31:31.764Z,13.44
2018-10-03T11:33:59.178Z,13.19
2018-10-03T11:36:26.607Z,13.16
2018-10-03T11:38:54.034Z,13.10
2018-10-03T11:41:21.479Z,13.17
2018-10-03T11:43:49.000Z,13.23
2018-10-03T11:46:16.354Z,13.18
2018-10-03T11:48:43.843Z,13.16
2018-10-03T11:51:11.268Z,13.11
2018-10-03T11:53:38.696Z,13.41
2018-10-03T11:56:06.115Z,13.54
2018-10-03T11:58:33.531Z,13.59
2018-10-03T12:01:00.948Z,13.48
2018-10-03T12:03:28.396Z,13.91
2018-10-03T12:05:55.811Z,14.13
2018-10-03T12:08:23.231Z,14.17
2018-10-03T12:10:50.651Z,13.85
2018-10-03T12:13:18.121Z,13.25
2018-10-03T12:15:45.539Z,12.60
2018-10-03T12:18:12.950Z,12.35
2018-10-03T12:20:40.367Z,12.45
2018-10-03T12:23:07.793Z,12.56
2018-10-03T12:25:35.207Z,12.66
2018-10-03T12:28:02.628Z,12.56
2018-10-03T12:30:30.039Z,12.39
2018-10-03T12:32:57.463Z,12.33
2018-10-03T12:35:30.193Z,12.32
2018-10-03T12:37:57.704Z,12.28
2018-10-03T12:40:25.117Z,12.28
2018-10-03T12:42:52.629Z,12.47
2018-10-03T12:45:20.051Z,12.30
2018-10-03T12:47:47.474Z,12.26
2018-10-03T12:50:14.996Z,12.29
2018-10-03T12:52:42.453Z,12.17
2018-10-03T12:55:09.884Z,12.32
2018-10-03T12:57:37.292Z,12.42
2018-10-03T13:00:04.710Z,12.61
2018-10-03T13:02:32.346Z,12.87
2018-10-03T13:04:59.849Z,13.19
2018-10-03T13:07:27.274Z,13.43
2018-10-03T13:09:54.679Z,13.64
2018-10-03T13:12:22.092Z,13.66
2018-10-03T13:14:49.507Z,13.86
2018-10-03T13:17:16.914Z,13.85
2018-10-03T13:19:44.558Z,13.84
2018-10-03T13:22:11.972Z,14.01
2018-10-03T13:24:39.404Z,14.16
2018-10-03T13:27:06.820Z,14.19
2018-10-03T13:29:34.248Z,14.24
2018-10-03T13:32:01.668Z,14.50
2018-10-03T13:34:29.080Z,14.27
2018-10-03T13:36:56.692Z,14.45
2018-10-03T13:39:24.145Z,14.65
2018-10-03T13:41:51.566Z,14.58
2018-10-03T13:44:19.007Z,14.59
2018-10-03T13:46:46.468Z,14.43
2018-10-03T13:49:14.060Z,14.60
2018-10-03T13:51:41.467Z,14.55
2018-10-03T13:54:08.895Z,14.44
2018-10-03T13:56:36.310Z,14.35
2018-10-03T13:59:03.731Z,14.33
2018-10-03T14:01:31.140Z,14.35
2018-10-03T14:03:58.562Z,14.42
2018-10-03T14:06:25.979Z,14.38
2018-10-03T14:08:53.396Z,14.36
2018-10-03T14:11:20.810Z,14.38
2018-10-03T14:13:48.238Z,14.19
2018-10-03T14:16:15.650Z,14.17
2018-10-03T14:18:43.135Z,14.22
2018-10-03T14:21:10.484Z,14.19
2018-10-03T14:23:37.895Z,14.17
2018-10-03T14:26:05.311Z,14.01
2018-10-03T14:28:32.795Z,13.98
2018-10-03T14:31:00.284Z,13.97
2018-10-03T14:33:27.701Z,14.03
2018-10-03T14:35:55.120Z,14.02
2018-10-03T14:38:22.619Z,14.05
2018-10-03T14:40:50.040Z,14.24
2018-10-03T14:43:17.450Z,14.30
2018-10-03T14:45:44.878Z,14.22
2018-10-03T14:48:12.327Z,14.14
2018-10-03T14:50:39.816Z,13.83
2018-10-03T14:53:07.237Z,13.47
2018-10-03T14:55:34.699Z,13.34
2018-10-03T14:58:02.116Z,13.14
2018-10-03T15:00:29.637Z,13.31
2018-10-03T15:02:57.096Z,13.34
2018-10-03T15:05:24.515Z,13.29
2018-10-03T15:07:51.927Z,13.33
2018-10-03T15:10:19.346Z,13.29
2018-10-03T15:12:46.787Z,13.27
2018-10-03T15:15:14.180Z,13.29
2018-10-03T15:17:41.586Z,13.32
2018-10-03T15:20:09.003Z,13.24
2018-10-03T15:22:36.419Z,13.20
2018-10-03T15:25:03.843Z,13.20
2018-10-03T15:27:31.271Z,13.22
2018-10-03T15:29:58.843Z,13.18
2018-10-03T15:32:26.127Z,13.21
2018-10-03T15:34:53.578Z,13.21
2018-10-03T15:37:21.047Z,13.25
2018-10-03T15:39:48.552Z,13.21
2018-10-03T15:42:15.972Z,13.13
2018-10-03T15:44:43.540Z,13.10
2018-10-03T15:47:10.943Z,13.05
2018-10-03T15:49:38.484Z,13.12
2018-10-03T15:52:05.908Z,13.09
2018-10-03T15:54:33.327Z,13.06
2018-10-03T15:57:00.743Z,13.02
2018-10-03T15:59:28.200Z,12.96
2018-10-03T16:01:55.668Z,12.84
2018-10-03T16:04:23.083Z,12.95
2018-10-03T16:06:50.507Z,12.94
2018-10-03T16:09:17.938Z,12.87
2018-10-03T16:11:45.403Z,12.64
2018-10-03T16:14:12.826Z,12.47
2018-10-03T16:16:40.247Z,12.27
2018-10-03T16:19:07.655Z,12.02
2018-10-03T16:21:35.079Z,12.00
2018-10-03T16:24:02.495Z,12.05
2018-10-03T16:26:30.125Z,11.73
2018-10-03T16:28:57.366Z,11.70
2018-10-03T16:31:24.797Z,11.55
2018-10-03T16:33:52.216Z,11.58
2018-10-03T16:36:19.775Z,11.49
2018-10-03T16:38:47.274Z,11.45
2018-10-03T16:41:14.619Z,11.54
2018-10-03T16:43:42.032Z,11.52
2018-10-03T16:46:09.881Z,11.43
2018-10-03T16:48:37.299Z,11.53
2018-10-03T16:51:04.731Z,11.47
2018-10-03T16:53:32.155Z,11.47
2018-10-03T16:55:59.583Z,11.48
2018-10-03T16:58:27.092Z,11.49
2018-10-03T17:00:54.624Z,11.33
2018-10-03T17:03:22.001Z,11.26
2018-10-03T17:05:49.426Z,11.37
2018-10-03T17:08:16.859Z,11.30
2018-10-03T17:10:44.287Z,11.35
2018-10-03T17:13:11.723Z,11.49
2018-10-03T17:15:39.148Z,11.52
2018-10-03T17:18:06.563Z,11.60
2018-10-03T17:20:33.977Z,11.53
2018-10-03T17:23:01.392Z,11.43
2018-10-03T17:25:28.811Z,11.35
2018-10-03T17:27:56.230Z,11.34
2018-10-03T17:30:23.654Z,11.34
2018-10-03T17:32:51.079Z,11.51
2018-10-03T17:35:18.507Z,11.57
2018-10-03T17:37:46.006Z,11.44
2018-10-03T17:40:13.427Z,11.44
2018-10-03T17:42:40.851Z,11.48
2018-10-03T17:45:08.288Z,11.49
2018-10-03T17:47:35.738Z,11.60
2018-10-03T17:50:03.151Z,11.64
2018-10-03T17:52:30.594Z,11.65
2018-10-03T17:54:57.990Z,11.66
2018-10-03T17:57:25.419Z,11.80
2018-10-03T17:59:52.836Z,11.69
2018-10-03T18:02:20.267Z,11.75
2018-10-03T18:04:47.732Z,11.74
2018-10-03T18:07:15.110Z,11.74
2018-10-03T18:09:42.527Z,11.86
2018-10-03T18:12:09.939Z,11.85
2018-10-03T18:14:37.369Z,11.85
2018-10-03T18:17:04.877Z,11.85
2018-10-03T18:19:32.316Z,11.89
2018-10-03T18:21:59.742Z,11.72
2018-10-03T18:24:27.172Z,11.79
2018-10-03T18:26:54.595Z,11.71
2018-10-03T18:29:22.003Z,11.86
2018-10-03T18:31:49.431Z,11.85
2018-10-03T18:34:16.841Z,11.70
2018-10-03T18:36:44.571Z,11.64
2018-10-03T18:39:12.044Z,11.71
2018-10-03T18:41:39.967Z,11.58
2018-10-03T18:44:07.382Z,11.65
2018-10-03T18:46:34.815Z,11.63
2018-10-03T18:49:02.223Z,11.64
2018-10-03T18:51:29.637Z,11.76
2018-10-03T18:53:57.091Z,11.78
2018-10-03T18:56:24.519Z,11.73
2018-10-03T18:58:51.935Z,11.81
2018-10-03T19:01:19.461Z,11.58
2018-10-03T19:03:46.867Z,11.53
2018-10-03T19:06:14.326Z,11.58
2018-10-03T19:08:41.711Z,11.57
2018-10-03T19:11:09.148Z,11.55
2018-10-03T19:13:36.581Z,11.30
2018-10-03T19:16:03.992Z,11.29
2018-10-03T19:18:31.410Z,11.23
2018-10-03T19:20:58.812Z,11.15
2018-10-03T19:23:26.227Z,11.14
2018-10-03T19:25:53.652Z,11.16
2018-10-03T19:28:21.087Z,10.99
2018-10-03T19:30:48.498Z,10.96
2018-10-03T19:33:15.908Z,10.93
2018-10-03T19:35:43.416Z,10.88
2018-10-03T19:38:10.782Z,10.97
2018-10-03T19:40:38.196Z,10.76
2018-10-03T19:43:05.615Z,10.94
2018-10-03T19:45:33.051Z,10.94
2018-10-03T19:48:00.667Z,10.94
2018-10-03T19:50:28.027Z,10.89
2018-10-03T19:52:55.452Z,10.88
2018-10-03T19:55:22.925Z,10.93
2018-10-03T19:57:50.343Z,10.98
2018-10-03T20:00:17.768Z,11.07
2018-10-03T20:02:45.179Z,10.91
2018-10-03T20:05:12.599Z,11.00
2018-10-03T20:07:40.011Z,11.04
2018-10-03T20:10:07.424Z,11.02
2018-10-03T20:12:34.839Z,11.03
2018-10-03T20:15:02.247Z,11.06
2018-10-03T20:17:29.671Z,11.11
2018-10-03T20:19:57.091Z,11.24
2018-10-03T20:22:24.535Z,11.15
2018-10-03T20:24:51.989Z,11.22
2018-10-03T20:27:19.429Z,11.26
2018-10-03T20:29:46.880Z,11.26
2018-10-03T20:32:14.307Z,11.12
2018-10-03T20:34:41.721Z,11.22
2018-10-03T20:37:09.140Z,11.22
2018-10-03T20:39:36.558Z,11.11
2018-10-03T20:42:03.981Z,11.20
2018-10-03T20:44:31.392Z,11.18
2018-10-03T20:46:58.807Z,11.15
2018-10-03T20:49:26.263Z,11.17
2018-10-03T20:51:53.687Z,11.09
2018-10-03T20:54:21.160Z,10.98
2018-10-03T20:56:48.531Z,11.00
2018-10-03T20:59:15.934Z,10.94
2018-10-03T21:01:43.457Z,10.94
2018-10-03T21:04:10.887Z,10.93
2018-10-03T21:06:38.301Z,10.89
2018-10-03T21:09:05.823Z,11.02
2018-10-03T21:11:33.243Z,11.07
2018-10-03T21:14:00.667Z,11.15
2018-10-03T21:16:28.099Z,11.26
2018-10-03T21:18:55.515Z,11.24
2018-10-03T21:21:22.962Z,11.24
2018-10-03T21:23:50.384Z,11.23
2018-10-03T21:26:17.800Z,11.14
2018-10-03T21:28:45.210Z,11.28
2018-10-03T21:31:12.635Z,11.15
2018-10-03T21:33:40.062Z,11.28
2018-10-03T21:36:07.467Z,11.19
2018-10-03T21:38:34.895Z,11.16
2018-10-03T21:41:02.329Z,11.25
2018-10-03T21:43:29.769Z,11.31
2018-10-03T21:45:57.162Z,11.28
2018-10-03T21:48:24.636Z,11.25
2018-10-03T21:50:52.150Z,11.34
2018-10-03T21:53:19.569Z,11.43
2018-10-03T21:55:46.974Z,11.42
2018-10-03T21:58:14.394Z,11.49
2018-10-03T22:00:47.194Z,11.42
2018-10-03T22:03:14.607Z,11.49
2018-10-03T22:05:42.020Z,11.55
2018-10-03T22:08:09.436Z,11.51
2018-10-03T22:10:36.842Z,11.46
2018-10-03T22:13:04.267Z,11.53
2018-10-03T22:15:31.791Z,11.59
2018-10-03T22:17:59.253Z,11.46
2018-10-03T22:20:26.674Z,11.49
2018-10-03T22:22:54.130Z,11.46
2018-10-03T22:25:21.523Z,11.38
2018-10-03T22:27:48.934Z,11.35
2018-10-03T22:30:16.424Z,11.39
2018-10-03T22:32:43.839Z,11.41
2018-10-03T22:35:11.338Z,11.31
2018-10-03T22:37:38.758Z,11.19
2018-10-03T22:40:06.172Z,11.10
2018-10-03T22:42:33.588Z,11.04
2018-10-03T22:45:01.003Z,10.94
2018-10-03T22:47:28.463Z,10.96
2018-10-03T22:49:56.051Z,10.64
2018-10-03T22:52:23.620Z,10.69
2018-10-03T22:54:51.038Z,10.72
2018-10-03T22:57:18.463Z,10.79
2018-10-03T22:59:45.885Z,10.81
2018-10-03T23:02:13.298Z,10.80
2018-10-03T23:04:40.711Z,10.82
2018-10-03T23:07:08.132Z,10.86
2018-10-03T23:09:35.551Z,10.73
2018-10-03T23:12:02.967Z,10.76
2018-10-03T23:14:30.471Z,10.83
2018-10-03T23:16:57.883Z,10.78
2018-10-03T23:19:25.308Z,10.79
2018-10-03T23:21:52.835Z,10.72
2018-10-03T23:24:20.259Z,10.73
2018-10-03T23:26:47.668Z,10.73
2018-10-03T23:29:15.099Z,10.83
2018-10-03T23:31:42.533Z,10.74
2018-10-03T23:34:09.955Z,10.85
2018-10-03T23:36:37.364Z,10.70
2018-10-03T23:39:05.003Z,10.73
2018-10-03T23:41:32.498Z,10.79
2018-10-03T23:43:59.954Z,10.79
2018-10-03T23:46:27.370Z,10.78
2018-10-03T23:48:54.870Z,10.78
2018-10-03T23:51:22.323Z,10.77
2018-10-03T23:53:49.742Z,10.77
2018-10-03T23:56:17.146Z,10.71
2018-10-03T23:58:44.598Z,10.58
